Time;durP1;ratioP1;P1;durP2;ratioP2;P2;SDS_P1;SDS_P2;PMS_P1;PMS_P2;Temp;Humidity;BMP_temperature;BMP_pressure;BME280_temperature;BME280_humidity;BME280_pressure;Samples;Min_cycle;Max_cycle;Signal;HPM_P1;HPM_P2
2023/08/19 00:02:05;;;;;;;9.30;6.88;;;19.30;99.90;;;;;;7598622;19;20082;-76
2023/08/19 00:04:37;;;;;;;10.03;6.93;;;19.30;99.90;;;;;;7589476;19;20015;-73
2023/08/19 00:07:09;;;;;;;10.15;6.88;;;19.20;99.90;;;;;;7597429;19;20567;-76
2023/08/19 00:09:42;;;;;;;13.98;7.03;;;19.30;99.90;;;;;;7587904;19;20062;-74
2023/08/19 00:12:14;;;;;;;13.45;6.40;;;19.20;99.90;;;;;;7594777;19;20018;-74
2023/08/19 00:14:48;;;;;;;7.80;6.18;;;19.10;99.90;;;;;;7586799;19;20021;-75
2023/08/19 00:17:20;;;;;;;8.85;6.22;;;19.00;99.90;;;;;;7597657;19;20108;-74
2023/08/19 00:19:52;;;;;;;8.68;7.15;;;19.00;99.90;;;;;;7599191;19;20022;-74
2023/08/19 00:22:24;;;;;;;10.35;6.53;;;18.90;99.90;;;;;;7603046;19;20021;-75
2023/08/19 00:24:57;;;;;;;10.75;7.05;;;18.80;99.90;;;;;;7600145;19;20029;-76
2023/08/19 00:27:29;;;;;;;9.93;6.50;;;18.80;99.90;;;;;;7586759;19;20022;-75
2023/08/19 00:30:03;;;;;;;12.52;7.28;;;18.80;99.90;;;;;;7599198;19;20061;-75
2023/08/19 00:32:35;;;;;;;11.85;6.63;;;18.80;99.90;;;;;;7597632;19;20290;-75
2023/08/19 00:35:08;;;;;;;10.82;6.80;;;18.70;99.90;;;;;;7595402;19;20041;-75
2023/08/19 00:37:40;;;;;;;11.10;7.18;;;18.70;99.90;;;;;;7596368;19;20932;-75
2023/08/19 00:40:17;;;;;;;10.50;6.50;;;18.70;99.90;;;;;;7593755;19;20041;-76
2023/08/19 00:42:50;;;;;;;12.05;6.60;;;18.60;99.90;;;;;;7594517;19;20114;-74
2023/08/19 00:45:23;;;;;;;12.18;6.38;;;18.60;99.90;;;;;;7598775;19;20021;-75
2023/08/19 00:47:56;;;;;;;7.22;6.53;;;18.70;99.90;;;;;;7592026;19;20015;-74
2023/08/19 00:50:34;;;;;;;9.95;6.68;;;18.60;99.90;;;;;;7601313;19;20059;-74
2023/08/19 00:53:12;;;;;;;9.80;7.05;;;18.60;99.90;;;;;;7600093;19;20531;-75
2023/08/19 00:55:46;;;;;;;13.25;6.68;;;18.50;99.90;;;;;;7593429;19;20023;-74
2023/08/19 00:58:18;;;;;;;9.75;7.38;;;18.50;99.90;;;;;;7597785;19;20037;-74
2023/08/19 01:00:53;;;;;;;9.02;7.25;;;18.40;99.90;;;;;;7602065;19;20014;-74
2023/08/19 01:03:25;;;;;;;7.65;6.10;;;18.40;99.90;;;;;;7599929;19;20125;-74
2023/08/19 01:06:10;;;;;;;12.47;6.47;;;18.30;99.90;;;;;;7592983;19;20377;-73
2023/08/19 01:09:07;;;;;;;9.48;6.55;;;18.40;99.90;;;;;;7601309;19;21465;-77
2023/08/19 01:12:09;;;;;;;10.57;6.55;;;18.50;99.90;;;;;;7597479;19;20374;-76
2023/08/19 01:15:17;;;;;;;7.57;5.38;;;18.40;99.90;;;;;;7596508;19;20106;-76
2023/08/19 01:17:53;;;;;;;10.20;5.93;;;18.30;99.90;;;;;;7599940;19;20018;-74
2023/08/19 01:20:31;;;;;;;7.75;6.18;;;18.30;99.90;;;;;;7600650;19;20129;-75
2023/08/19 01:23:07;;;;;;;9.13;5.75;;;18.30;99.90;;;;;;7597826;19;20051;-74
2023/08/19 01:25:41;;;;;;;12.32;5.85;;;18.30;99.90;;;;;;7598560;19;20501;-75
2023/08/19 01:28:14;;;;;;;9.80;6.10;;;18.30;99.90;;;;;;7597568;19;20102;-77
2023/08/19 01:30:46;;;;;;;7.50;5.80;;;18.20;99.90;;;;;;7598572;19;20029;-75
2023/08/19 01:33:21;;;;;;;11.00;5.97;;;18.10;99.90;;;;;;7596858;19;20106;-74
2023/08/19 01:36:07;;;;;;;12.65;6.85;;;18.00;99.90;;;;;;7598013;19;20042;-75
2023/08/19 01:38:46;;;;;;;12.60;6.43;;;18.00;99.90;;;;;;7595854;19;20023;-75
2023/08/19 01:41:22;;;;;;;12.48;6.47;;;17.90;99.90;;;;;;7594267;19;20030;-74
2023/08/19 01:43:57;;;;;;;9.38;6.53;;;17.90;99.90;;;;;;7594995;19;20642;-75
2023/08/19 01:46:30;;;;;;;9.85;6.82;;;17.90;99.90;;;;;;7594688;19;20098;-74
2023/08/19 01:49:04;;;;;;;9.63;5.55;;;17.80;99.90;;;;;;7599467;19;20018;-74
2023/08/19 01:51:37;;;;;;;9.52;6.70;;;17.70;99.90;;;;;;7596706;19;20018;-74
2023/08/19 01:54:09;;;;;;;12.00;6.38;;;17.70;99.90;;;;;;7596601;19;20068;-75
2023/08/19 01:56:41;;;;;;;13.30;6.00;;;17.60;99.90;;;;;;7596027;19;20014;-75
2023/08/19 01:59:14;;;;;;;7.72;5.80;;;17.60;99.90;;;;;;7596071;19;21376;-75
2023/08/19 02:01:47;;;;;;;12.38;5.82;;;17.60;99.90;;;;;;7595363;19;20025;-75
2023/08/19 02:04:19;;;;;;;11.13;5.60;;;17.60;99.90;;;;;;7596333;19;20018;-75
2023/08/19 02:06:53;;;;;;;9.32;5.47;;;17.60;99.90;;;;;;7591375;19;20037;-74
2023/08/19 02:09:25;;;;;;;8.95;5.95;;;17.60;99.90;;;;;;7596015;19;20056;-75
2023/08/19 02:11:58;;;;;;;7.73;5.50;;;17.60;99.90;;;;;;7592777;19;20014;-75
2023/08/19 02:14:30;;;;;;;8.97;5.77;;;17.50;99.90;;;;;;7597783;19;20023;-75
2023/08/19 02:17:03;;;;;;;12.00;5.60;;;17.50;99.90;;;;;;7593668;19;20903;-75
2023/08/19 02:19:36;;;;;;;12.07;6.03;;;17.50;99.90;;;;;;7594642;19;20057;-75
2023/08/19 02:22:08;;;;;;;9.00;6.28;;;17.50;99.90;;;;;;7598663;19;20026;-73
2023/08/19 02:24:40;;;;;;;11.25;5.65;;;17.40;99.90;;;;;;7590357;19;22304;-75
2023/08/19 02:27:13;;;;;;;14.00;6.50;;;17.40;99.90;;;;;;7594761;19;20025;-75
2023/08/19 02:29:46;;;;;;;12.60;6.13;;;17.30;99.90;;;;;;7592536;19;20476;-74
2023/08/19 02:32:19;;;;;;;9.63;6.25;;;17.20;99.90;;;;;;7594922;19;20018;-75
2023/08/19 02:34:51;;;;;;;8.13;5.85;;;17.10;99.90;;;;;;7593712;19;20024;-75
2023/08/19 02:37:24;;;;;;;12.25;6.00;;;17.20;99.90;;;;;;7594299;19;20018;-76
2023/08/19 02:39:56;;;;;;;13.93;6.15;;;17.20;99.90;;;;;;7589763;19;20041;-75
2023/08/19 02:42:29;;;;;;;8.93;5.80;;;17.20;99.90;;;;;;7596246;19;20022;-74
2023/08/19 02:45:02;;;;;;;9.50;5.30;;;17.20;99.90;;;;;;7592275;19;20043;-74
2023/08/19 02:47:35;;;;;;;9.38;5.82;;;17.20;99.90;;;;;;7590402;19;20014;-75
2023/08/19 02:50:08;;;;;;;10.32;5.90;;;17.30;99.90;;;;;;7590071;19;20051;-76
2023/08/19 02:52:40;;;;;;;12.73;6.32;;;17.30;99.90;;;;;;7590573;19;20037;-74
2023/08/19 02:55:13;;;;;;;12.02;6.10;;;17.30;99.90;;;;;;7587853;19;20618;-74
2023/08/19 02:57:45;;;;;;;10.13;5.93;;;17.50;99.90;;;;;;7585400;19;20022;-75
2023/08/19 03:00:20;;;;;;;16.58;6.57;;;17.40;99.90;;;;;;7594012;19;20015;-75
2023/08/19 03:02:53;;;;;;;15.80;6.20;;;17.30;99.90;;;;;;7587071;19;20015;-74
2023/08/19 03:05:25;;;;;;;11.53;6.27;;;17.30;99.90;;;;;;7586832;19;20074;-74
2023/08/19 03:07:59;;;;;;;11.70;5.72;;;17.30;99.90;;;;;;7587580;19;20018;-76
2023/08/19 03:10:38;;;;;;;;;;;17.30;99.90;;;;;;7590979;19;20038;-74
2023/08/19 03:13:10;;;;;;;11.02;5.32;;;17.20;99.90;;;;;;7593749;19;19935;-75
2023/08/19 03:15:42;;;;;;;12.70;6.05;;;17.10;99.90;;;;;;7585221;19;20026;-76
2023/08/19 03:18:15;;;;;;;8.85;5.53;;;17.00;99.90;;;;;;7593440;19;20026;-75
2023/08/19 03:20:55;;;;;;;9.98;5.90;;;17.00;99.90;;;;;;7585520;19;22897;-75
2023/08/19 03:23:28;;;;;;;9.60;5.55;;;17.00;99.90;;;;;;7593964;19;20884;-74
2023/08/19 03:26:00;;;;;;;15.32;5.93;;;17.00;99.90;;;;;;7577310;19;20014;-75
2023/08/19 03:28:33;;;;;;;10.82;5.63;;;17.00;99.90;;;;;;7576387;19;20098;-75
2023/08/19 03:31:12;;;;;;;11.60;5.60;;;16.90;99.90;;;;;;7591420;19;20019;-77
2023/08/19 03:33:46;;;;;;;11.63;5.45;;;16.90;99.90;;;;;;7588865;19;20347;-77
2023/08/19 03:36:18;;;;;;;9.57;6.40;;;17.00;99.90;;;;;;7591463;19;20018;-75
2023/08/19 03:38:51;;;;;;;9.27;6.15;;;17.00;99.90;;;;;;7588675;19;20062;-75
2023/08/19 03:41:23;;;;;;;8.45;5.70;;;17.00;99.90;;;;;;7593478;19;20018;-75
2023/08/19 03:43:55;;;;;;;9.45;6.40;;;17.00;99.90;;;;;;7584342;19;20014;-74
2023/08/19 03:46:27;;;;;;;11.63;5.88;;;17.10;99.90;;;;;;7583217;19;20740;-73
2023/08/19 03:49:00;;;;;;;11.35;5.80;;;17.10;99.90;;;;;;7585892;19;20022;-73
2023/08/19 03:51:32;;;;;;;10.23;5.88;;;17.00;99.90;;;;;;7591412;19;20499;-75
2023/08/19 03:54:05;;;;;;;14.23;5.80;;;17.00;99.90;;;;;;7594676;19;20098;-75
2023/08/19 03:56:37;;;;;;;15.23;6.13;;;16.90;99.90;;;;;;7593193;19;20025;-77
2023/08/19 03:59:09;;;;;;;11.52;6.47;;;16.90;99.90;;;;;;7600442;19;20033;-75
2023/08/19 04:01:43;;;;;;;9.73;5.38;;;16.90;99.90;;;;;;7596706;19;20019;-73
2023/08/19 04:04:15;;;;;;;12.95;6.18;;;16.90;99.90;;;;;;7593945;19;20121;-75
2023/08/19 04:06:48;;;;;;;9.02;5.40;;;16.80;99.90;;;;;;7596952;19;20014;-74
2023/08/19 04:09:22;;;;;;;9.23;5.53;;;16.80;99.90;;;;;;7599191;19;20010;-74
2023/08/19 04:11:55;;;;;;;7.50;5.80;;;16.70;99.90;;;;;;7593786;19;20525;-75
2023/08/19 04:14:27;;;;;;;15.27;5.72;;;16.70;99.90;;;;;;7600281;19;20483;-75
2023/08/19 04:17:00;;;;;;;12.15;5.78;;;16.70;99.90;;;;;;7599533;19;20755;-74
2023/08/19 04:19:33;;;;;;;9.43;5.60;;;16.70;99.90;;;;;;7596751;19;20022;-74
2023/08/19 04:22:05;;;;;;;8.13;5.20;;;16.70;99.90;;;;;;7598839;19;20036;-74
2023/08/19 04:24:37;;;;;;;10.35;5.65;;;16.60;99.90;;;;;;7599091;19;20010;-76
2023/08/19 04:27:12;;;;;;;11.15;5.47;;;16.60;99.90;;;;;;7598145;19;20018;-74
2023/08/19 04:29:45;;;;;;;9.98;5.93;;;16.70;99.90;;;;;;7595390;19;20018;-75
2023/08/19 04:32:19;;;;;;;9.52;5.35;;;16.60;99.90;;;;;;7592539;19;20654;-75
2023/08/19 04:34:55;;;;;;;11.15;5.78;;;16.60;99.90;;;;;;7590924;19;20019;-74
2023/08/19 04:37:27;;;;;;;7.90;5.57;;;16.60;99.90;;;;;;7600801;19;20010;-76
2023/08/19 04:40:01;;;;;;;11.00;5.88;;;16.60;99.90;;;;;;7595123;19;20048;-74
2023/08/19 04:42:41;;;;;;;11.88;6.15;;;16.80;99.90;;;;;;7594226;19;20021;-74
2023/08/19 04:45:14;;;;;;;12.57;5.60;;;16.90;99.90;;;;;;7592471;19;20030;-73
2023/08/19 04:47:53;;;;;;;10.38;6.10;;;16.90;99.90;;;;;;7592128;19;20018;-74
2023/08/19 04:50:26;;;;;;;12.52;5.72;;;16.90;99.90;;;;;;7596049;19;20015;-75
2023/08/19 04:52:58;;;;;;;9.88;6.35;;;16.80;99.90;;;;;;7596525;19;20030;-74
2023/08/19 04:55:30;;;;;;;11.43;6.22;;;16.70;99.90;;;;;;7590043;19;20053;-75
2023/08/19 04:58:03;;;;;;;12.73;5.93;;;16.80;99.90;;;;;;7594475;19;20033;-74
2023/08/19 05:00:36;;;;;;;10.93;5.57;;;16.80;99.90;;;;;;7603374;19;20101;-75
2023/08/19 05:03:09;;;;;;;9.43;5.68;;;16.90;99.90;;;;;;7578002;19;20022;-74
2023/08/19 05:05:42;;;;;;;7.50;5.15;;;17.00;99.90;;;;;;7593208;19;20022;-74
2023/08/19 05:08:15;;;;;;;9.32;5.60;;;17.10;99.90;;;;;;7598391;19;20925;-74
2023/08/19 05:10:48;;;;;;;9.70;5.93;;;17.00;99.90;;;;;;7596076;19;20018;-74
2023/08/19 05:13:20;;;;;;;8.15;5.60;;;17.10;99.90;;;;;;7595599;19;20102;-74
2023/08/19 05:15:52;;;;;;;9.00;5.75;;;17.00;99.90;;;;;;7591729;19;20025;-74
2023/08/19 05:18:25;;;;;;;12.65;6.05;;;17.10;99.90;;;;;;7595227;19;20022;-74
2023/08/19 05:20:57;;;;;;;12.27;5.35;;;17.30;99.90;;;;;;7595803;19;20021;-75
2023/08/19 05:23:30;;;;;;;9.50;5.50;;;17.30;99.90;;;;;;7594889;19;20014;-74
2023/08/19 05:26:04;;;;;;;10.68;5.30;;;17.50;99.90;;;;;;7587958;19;20026;-75
2023/08/19 05:28:37;;;;;;;11.93;5.85;;;17.60;99.90;;;;;;7599108;19;20022;-74
2023/08/19 05:31:09;;;;;;;8.85;5.07;;;17.60;99.90;;;;;;7589466;19;20368;-75
2023/08/19 05:33:41;;;;;;;9.50;5.53;;;17.60;99.90;;;;;;7595603;19;20023;-73
2023/08/19 05:36:16;;;;;;;11.52;5.57;;;17.60;99.90;;;;;;7591387;19;20475;-74
2023/08/19 05:38:49;;;;;;;10.18;5.32;;;17.70;99.90;;;;;;7596524;19;20015;-74
2023/08/19 05:41:21;;;;;;;12.90;5.45;;;17.70;99.90;;;;;;7592202;19;20750;-74
2023/08/19 05:43:53;;;;;;;8.70;5.07;;;17.80;99.90;;;;;;7596713;19;20018;-73
2023/08/19 05:46:26;;;;;;;11.95;5.97;;;17.80;99.90;;;;;;7599799;19;20018;-74
2023/08/19 05:48:58;;;;;;;12.30;5.40;;;17.90;99.90;;;;;;7594465;19;20049;-74
2023/08/19 05:51:30;;;;;;;10.55;5.25;;;17.90;99.90;;;;;;7593217;19;20030;-74
2023/08/19 05:54:03;;;;;;;19.20;5.63;;;18.00;99.90;;;;;;7593587;19;20014;-75
2023/08/19 05:56:35;;;;;;;8.68;5.00;;;18.20;99.90;;;;;;7595819;19;20029;-74
2023/08/19 05:59:07;;;;;;;8.73;4.70;;;18.30;99.90;;;;;;7594564;19;20025;-73
2023/08/19 06:01:39;;;;;;;10.18;5.43;;;18.50;99.90;;;;;;7594032;19;20018;-74
2023/08/19 06:04:13;;;;;;;11.90;4.60;;;18.50;99.90;;;;;;7593931;19;20018;-75
2023/08/19 06:06:45;;;;;;;8.13;4.57;;;18.70;99.90;;;;;;7597673;19;20018;-73
2023/08/19 06:09:17;;;;;;;10.23;4.80;;;18.80;99.90;;;;;;7593523;19;20024;-73
2023/08/19 06:11:51;;;;;;;7.90;4.65;;;18.90;99.90;;;;;;7593590;19;20014;-76
2023/08/19 06:14:23;;;;;;;10.20;5.13;;;19.10;99.90;;;;;;7591028;19;20140;-73
2023/08/19 06:16:56;;;;;;;11.13;4.85;;;19.30;99.90;;;;;;7593904;19;20024;-73
2023/08/19 06:19:28;;;;;;;8.05;4.75;;;19.40;99.90;;;;;;7596769;19;20374;-75
2023/08/19 06:22:00;;;;;;;7.60;4.32;;;19.50;99.90;;;;;;7594434;19;20026;-75
2023/08/19 06:24:32;;;;;;;10.10;5.10;;;19.60;99.90;;;;;;7597857;19;20018;-74
2023/08/19 06:27:05;;;;;;;9.65;4.20;;;19.80;99.90;;;;;;7581369;19;20046;-74
2023/08/19 06:29:39;;;;;;;15.30;4.97;;;19.90;99.90;;;;;;7594656;19;20366;-75
2023/08/19 06:32:11;;;;;;;9.35;4.78;;;20.10;99.90;;;;;;7590212;19;20020;-73
2023/08/19 06:34:44;;;;;;;9.18;4.43;;;20.20;99.90;;;;;;7593488;19;20018;-73
2023/08/19 06:37:20;;;;;;;11.10;4.93;;;20.30;99.90;;;;;;7595480;19;20022;-75
2023/08/19 06:39:57;;;;;;;9.50;4.18;;;20.50;99.90;;;;;;7600802;19;20026;-74
2023/08/19 06:42:31;;;;;;;13.30;4.88;;;20.60;99.90;;;;;;7593301;19;20029;-75
2023/08/19 06:45:06;;;;;;;7.13;4.32;;;20.80;99.90;;;;;;7591100;19;20486;-75
2023/08/19 06:47:40;;;;;;;10.25;5.22;;;20.90;99.90;;;;;;7592847;19;20018;-74
2023/08/19 06:50:14;;;;;;;8.25;4.70;;;21.00;99.90;;;;;;7590547;19;20658;-75
2023/08/19 06:52:46;;;;;;;11.98;4.70;;;21.20;99.90;;;;;;7594067;19;20631;-73
2023/08/19 06:55:19;;;;;;;11.82;4.80;;;21.40;99.90;;;;;;7589334;19;20493;-73
2023/08/19 06:58:03;;;;;;;11.55;5.05;;;21.60;99.90;;;;;;7588098;19;21018;-74
2023/08/19 07:00:37;;;;;;;7.38;4.20;;;21.70;99.90;;;;;;7592768;19;20019;-74
2023/08/19 07:03:11;;;;;;;10.35;4.65;;;21.90;99.90;;;;;;7579301;19;20519;-74
2023/08/19 07:05:47;;;;;;;9.02;4.20;;;22.00;99.90;;;;;;7590062;19;20741;-74
2023/08/19 07:08:20;;;;;;;10.75;4.82;;;22.10;99.90;;;;;;7593585;19;20014;-74
2023/08/19 07:10:54;;;;;;;8.98;4.97;;;22.30;99.90;;;;;;7594294;19;20052;-74
2023/08/19 07:13:30;;;;;;;14.38;4.20;;;22.40;99.90;;;;;;7591356;19;20022;-73
2023/08/19 07:16:04;;;;;;;11.00;4.40;;;22.50;99.90;;;;;;7589599;19;20022;-73
2023/08/19 07:18:46;;;;;;;8.23;4.40;;;22.70;99.90;;;;;;7591014;19;20290;-75
2023/08/19 07:21:23;;;;;;;8.10;4.13;;;22.80;99.90;;;;;;7596608;19;20051;-74
2023/08/19 07:24:01;;;;;;;12.88;4.70;;;22.90;99.90;;;;;;7593871;19;20105;-73
2023/08/19 07:26:36;;;;;;;7.22;4.30;;;23.10;99.90;;;;;;7597346;19;20114;-75
2023/08/19 07:29:08;;;;;;;9.50;4.20;;;23.20;99.90;;;;;;7599707;19;20048;-74
2023/08/19 07:31:42;;;;;;;11.13;4.43;;;23.30;99.90;;;;;;7591797;19;20028;-75
2023/08/19 07:34:14;;;;;;;6.13;4.22;;;23.50;99.90;;;;;;7598549;19;20923;-74
2023/08/19 07:36:48;;;;;;;9.10;4.70;;;23.70;99.90;;;;;;7600136;19;20019;-75
2023/08/19 07:39:22;;;;;;;9.02;4.65;;;23.80;99.90;;;;;;7599925;19;20018;-74
2023/08/19 07:41:55;;;;;;;9.55;4.72;;;23.90;99.90;;;;;;7590142;19;20052;-75
2023/08/19 07:44:27;;;;;;;7.93;4.47;;;24.10;99.90;;;;;;7595296;19;20013;-72
2023/08/19 07:47:00;;;;;;;12.25;4.25;;;24.20;99.90;;;;;;7598643;19;20306;-73
2023/08/19 07:49:32;;;;;;;7.83;4.50;;;24.40;99.90;;;;;;7594996;19;20552;-74
2023/08/19 07:52:05;;;;;;;15.98;4.80;;;24.50;99.90;;;;;;7595896;19;20068;-75
2023/08/19 07:54:38;;;;;;;9.95;4.60;;;24.60;99.90;;;;;;7595011;19;20492;-74
2023/08/19 07:57:10;;;;;;;13.60;4.53;;;24.90;99.90;;;;;;7597088;19;20642;-74
2023/08/19 07:59:42;;;;;;;10.18;4.47;;;25.00;99.90;;;;;;7602887;19;20015;-74
2023/08/19 08:02:14;;;;;;;14.98;4.55;;;25.20;99.90;;;;;;7600358;19;20018;-74
2023/08/19 08:04:47;;;;;;;11.00;4.63;;;25.30;99.90;;;;;;7596037;19;20018;-75
2023/08/19 08:07:21;;;;;;;7.35;4.45;;;25.30;99.90;;;;;;7597382;19;20014;-74
2023/08/19 08:09:53;;;;;;;;;;;25.30;99.90;;;;;;7607570;19;20015;-75
2023/08/19 08:12:26;;;;;;;12.50;4.47;;;25.60;99.90;;;;;;7597684;19;21082;-74
2023/08/19 08:14:58;;;;;;;6.47;3.95;;;25.60;99.90;;;;;;7599209;19;20019;-73
2023/08/19 08:17:31;;;;;;;6.13;4.32;;;25.70;99.90;;;;;;7596333;19;20033;-74
2023/08/19 08:20:04;;;;;;;8.20;4.22;;;25.90;99.90;;;;;;7599751;19;20014;-73
2023/08/19 08:22:37;;;;;;;7.75;4.20;;;26.00;99.90;;;;;;7600196;19;20014;-75
2023/08/19 08:25:09;;;;;;;6.95;4.10;;;26.00;99.90;;;;;;7596234;19;20962;-75
2023/08/19 08:27:42;;;;;;;10.43;3.83;;;25.90;98.30;;;;;;7598090;19;20362;-74
2023/08/19 08:30:14;;;;;;;7.77;3.70;;;26.10;98.70;;;;;;7595370;19;20879;-74
2023/08/19 08:32:47;;;;;;;10.27;4.00;;;26.10;98.20;;;;;;7598247;19;20022;-74
2023/08/19 08:35:19;;;;;;;7.40;3.90;;;26.30;99.10;;;;;;7592937;19;20014;-74
2023/08/19 08:37:52;;;;;;;6.13;3.70;;;26.30;99.30;;;;;;7596231;19;20014;-73
2023/08/19 08:40:25;;;;;;;8.32;4.22;;;26.30;98.00;;;;;;7599090;19;20097;-74
2023/08/19 08:43:02;;;;;;;6.63;4.45;;;26.30;97.60;;;;;;7596340;19;20332;-75
2023/08/19 08:45:35;;;;;;;6.85;3.97;;;26.30;97.50;;;;;;7594524;19;20014;-74
2023/08/19 08:48:10;;;;;;;7.65;4.10;;;26.40;98.00;;;;;;7591807;19;20022;-74
2023/08/19 08:50:47;;;;;;;7.80;4.25;;;26.50;97.70;;;;;;7600225;19;20026;-75
2023/08/19 08:53:20;;;;;;;6.18;4.43;;;26.50;99.20;;;;;;7596329;19;20125;-73
2023/08/19 08:55:54;;;;;;;5.70;3.93;;;26.70;98.60;;;;;;7596421;19;20717;-73
2023/08/19 08:58:27;;;;;;;10.88;4.60;;;26.80;97.70;;;;;;7597991;19;20287;-74
2023/08/19 09:01:03;;;;;;;7.07;4.07;;;26.70;98.20;;;;;;7607092;19;20018;-74
2023/08/19 09:03:39;;;;;;;8.30;4.90;;;26.80;98.80;;;;;;7598643;19;20033;-73
2023/08/19 09:06:16;;;;;;;8.63;3.92;;;26.80;97.70;;;;;;7589674;19;20018;-74
2023/08/19 09:09:02;;;;;;;11.48;4.30;;;26.90;96.80;;;;;;7596863;19;20818;-74
2023/08/19 09:11:38;;;;;;;11.45;4.53;;;27.00;96.20;;;;;;7594407;19;20022;-74
2023/08/19 09:14:28;;;;;;;6.95;4.78;;;27.00;96.40;;;;;;7594101;19;20465;-73
2023/08/19 09:17:01;;;;;;;8.57;4.40;;;27.00;96.30;;;;;;7598152;19;20025;-73
2023/08/19 09:19:35;;;;;;;6.00;3.70;;;27.10;96.00;;;;;;7598491;19;20022;-73
2023/08/19 09:22:17;;;;;;;9.20;4.05;;;27.20;95.00;;;;;;7597770;19;20014;-75
2023/08/19 09:24:52;;;;;;;7.88;4.00;;;27.20;94.10;;;;;;7599038;19;20022;-74
2023/08/19 09:27:27;;;;;;;8.68;4.50;;;27.20;94.00;;;;;;7595375;19;20565;-74
2023/08/19 09:29:59;;;;;;;9.32;4.25;;;27.20;93.20;;;;;;7594114;19;20025;-75
2023/08/19 09:32:33;;;;;;;8.07;3.57;;;27.20;93.90;;;;;;7595007;19;20371;-74
2023/08/19 09:35:09;;;;;;;8.68;4.20;;;27.40;92.70;;;;;;7595866;19;20146;-74
2023/08/19 09:37:42;;;;;;;7.22;3.40;;;27.50;92.60;;;;;;7600917;19;20638;-73
2023/08/19 09:40:21;;;;;;;6.83;3.70;;;27.60;91.70;;;;;;7595468;19;20089;-75
2023/08/19 09:42:56;;;;;;;10.48;4.32;;;27.60;91.20;;;;;;7596744;19;20011;-74
2023/08/19 09:45:29;;;;;;;9.52;3.42;;;27.80;92.10;;;;;;7596519;19;20800;-73
2023/08/19 09:48:02;;;;;;;7.97;4.50;;;27.80;91.00;;;;;;7589571;19;20047;-74
2023/08/19 09:50:34;;;;;;;7.30;4.13;;;27.80;90.80;;;;;;7598157;19;20014;-74
2023/08/19 09:53:06;;;;;;;15.48;3.97;;;27.80;89.90;;;;;;7597524;19;20014;-73
2023/08/19 09:55:44;;;;;;;7.38;4.05;;;27.80;90.80;;;;;;7597302;19;20017;-74
2023/08/19 09:58:17;;;;;;;6.32;4.15;;;27.90;90.90;;;;;;7597109;19;20527;-74
2023/08/19 10:00:50;;;;;;;4.07;3.60;;;28.00;89.80;;;;;;7599052;19;20007;-75
2023/08/19 10:03:23;;;;;;;;;;;28.00;90.10;;;;;;7593462;19;20809;-74
2023/08/19 10:05:56;;;;;;;7.70;3.47;;;28.10;91.10;;;;;;7595602;19;19923;-74
2023/08/19 10:08:32;;;;;;;9.77;3.88;;;28.20;88.70;;;;;;7596598;19;20029;-74
2023/08/19 10:11:06;;;;;;;11.57;4.03;;;28.20;90.20;;;;;;7589244;19;20029;-74
2023/08/19 10:13:38;;;;;;;6.60;3.80;;;28.30;90.20;;;;;;7595156;19;20022;-75
2023/08/19 10:16:13;;;;;;;5.75;4.20;;;28.30;87.50;;;;;;7595004;19;20023;-74
2023/08/19 10:18:46;;;;;;;6.10;3.65;;;28.30;86.50;;;;;;7594301;19;20018;-74
2023/08/19 10:21:22;;;;;;;6.60;3.72;;;28.40;87.40;;;;;;7593771;19;20019;-73
2023/08/19 10:23:56;;;;;;;7.70;3.72;;;28.50;88.50;;;;;;7596983;19;20018;-74
2023/08/19 10:26:28;;;;;;;7.28;3.70;;;28.50;87.50;;;;;;7593683;19;20022;-75
2023/08/19 10:29:06;;;;;;;8.43;4.20;;;28.60;88.30;;;;;;7598648;19;20929;-75
2023/08/19 10:31:40;;;;;;;10.57;4.28;;;28.70;87.30;;;;;;7591939;19;20115;-74
2023/08/19 10:34:25;;;;;;;6.18;4.15;;;28.70;85.90;;;;;;7596418;19;20047;-74
2023/08/19 10:37:08;;;;;;;7.93;4.53;;;28.80;85.60;;;;;;7591576;19;20014;-74
2023/08/19 10:39:46;;;;;;;6.20;4.18;;;28.80;86.10;;;;;;7596792;19;20022;-73
2023/08/19 10:42:26;;;;;;;10.13;4.15;;;28.90;85.50;;;;;;7593468;19;20073;-74
2023/08/19 10:44:58;;;;;;;6.90;3.85;;;29.00;85.00;;;;;;7596282;19;20014;-74
2023/08/19 10:47:31;;;;;;;10.43;4.20;;;29.00;83.60;;;;;;7587619;19;20026;-73
2023/08/19 10:50:07;;;;;;;5.00;3.83;;;29.10;84.20;;;;;;7600661;19;21236;-74
2023/08/19 10:52:58;;;;;;;6.88;4.10;;;29.20;82.30;;;;;;7595336;19;20018;-74
2023/08/19 10:55:52;;;;;;;5.70;3.95;;;29.20;80.60;;;;;;7593501;19;20029;-74
2023/08/19 10:58:25;;;;;;;6.70;3.35;;;29.30;78.30;;;;;;7601249;19;20029;-76
2023/08/19 11:00:58;;;;;;;6.88;3.33;;;29.30;76.10;;;;;;7601780;19;20021;-74
2023/08/19 11:03:31;;;;;;;11.90;3.05;;;29.40;75.30;;;;;;7594233;19;20038;-74
2023/08/19 11:06:05;;;;;;;;;;;29.40;75.10;;;;;;7596671;19;20534;-74
2023/08/19 11:08:41;;;;;;;8.93;3.50;;;29.60;74.50;;;;;;7591572;19;19926;-74
2023/08/19 11:11:17;;;;;;;6.90;3.40;;;29.80;74.90;;;;;;7591768;19;20437;-74
2023/08/19 11:13:49;;;;;;;10.93;3.83;;;30.20;73.60;;;;;;7590736;19;20018;-74
2023/08/19 11:16:28;;;;;;;6.88;3.85;;;30.70;75.20;;;;;;7593190;19;20728;-75
2023/08/19 11:19:01;;;;;;;7.80;3.70;;;31.10;75.70;;;;;;7598474;19;20015;-74
2023/08/19 11:21:39;;;;;;;7.68;3.75;;;31.50;74.70;;;;;;7593506;19;20018;-74
2023/08/19 11:24:12;;;;;;;7.85;3.78;;;31.80;71.80;;;;;;7597255;19;21360;-75
2023/08/19 11:26:47;;;;;;;12.52;4.13;;;32.10;71.20;;;;;;7592188;19;20101;-74
2023/08/19 11:29:20;;;;;;;5.80;3.63;;;32.30;69.70;;;;;;7594878;19;20048;-74
2023/08/19 11:31:53;;;;;;;6.78;3.55;;;32.60;68.00;;;;;;7592901;19;20011;-74
2023/08/19 11:34:30;;;;;;;9.32;4.22;;;32.90;69.00;;;;;;7591674;19;20940;-74
2023/08/19 11:37:05;;;;;;;7.93;3.55;;;33.10;65.90;;;;;;7596585;19;20026;-75
2023/08/19 11:39:38;;;;;;;6.55;3.28;;;33.30;64.00;;;;;;7590792;19;20495;-74
2023/08/19 11:42:10;;;;;;;6.70;3.08;;;33.60;63.10;;;;;;7594159;19;21273;-75
2023/08/19 11:44:43;;;;;;;6.53;3.35;;;33.90;62.00;;;;;;7590804;19;20018;-74
2023/08/19 11:47:15;;;;;;;5.82;3.10;;;34.10;62.90;;;;;;7588972;19;20353;-75
2023/08/19 11:49:48;;;;;;;6.38;3.05;;;34.20;58.80;;;;;;7590302;19;21056;-74
2023/08/19 11:52:21;;;;;;;11.52;3.58;;;34.20;57.10;;;;;;7597039;19;20022;-74
2023/08/19 11:55:03;;;;;;;6.30;3.05;;;34.40;58.10;;;;;;7594310;19;20018;-74
2023/08/19 11:57:37;;;;;;;10.98;3.30;;;34.50;54.80;;;;;;7591106;19;20025;-75
2023/08/19 12:00:18;;;;;;;5.55;3.33;;;34.60;56.70;;;;;;7593787;19;20018;-73
2023/08/19 12:02:51;;;;;;;7.40;3.30;;;34.60;56.80;;;;;;7591656;19;21141;-75
2023/08/19 12:05:26;;;;;;;7.00;3.03;;;34.80;53.90;;;;;;7592429;19;20104;-74
2023/08/19 12:07:58;;;;;;;5.50;2.95;;;35.00;54.70;;;;;;7592005;19;22539;-75
2023/08/19 12:10:40;;;;;;;9.10;3.13;;;35.10;54.20;;;;;;7584969;19;20114;-74
2023/08/19 12:13:19;;;;;;;5.70;3.15;;;35.50;53.70;;;;;;7595248;19;20029;-74
2023/08/19 12:15:53;;;;;;;5.95;3.45;;;35.60;51.50;;;;;;7595769;19;20077;-75
2023/08/19 12:18:29;;;;;;;8.15;3.60;;;35.70;53.20;;;;;;7596081;19;20369;-74
2023/08/19 12:21:03;;;;;;;5.50;3.25;;;35.50;51.40;;;;;;7599221;19;20861;-75
2023/08/19 12:23:35;;;;;;;8.93;3.40;;;35.30;52.30;;;;;;7602253;19;20029;-75
2023/08/19 12:26:07;;;;;;;7.45;3.70;;;35.40;52.50;;;;;;7594046;19;20925;-75
2023/08/19 12:28:40;;;;;;;9.38;3.55;;;35.80;52.50;;;;;;7600153;19;20029;-75
2023/08/19 12:31:12;;;;;;;6.60;3.15;;;36.00;50.00;;;;;;7601689;19;20015;-73
2023/08/19 12:33:45;;;;;;;7.03;3.40;;;36.10;49.60;;;;;;7596314;19;20462;-75
2023/08/19 12:36:18;;;;;;;;;;;35.90;49.10;;;;;;7596068;19;20018;-75
2023/08/19 12:38:51;;;;;;;9.73;3.43;;;36.00;50.70;;;;;;7597529;19;20973;-75
2023/08/19 12:41:23;;;;;;;10.05;3.28;;;36.20;50.30;;;;;;7597786;19;20318;-76
2023/08/19 12:43:56;;;;;;;5.45;3.00;;;36.50;50.20;;;;;;7588930;19;20623;-75
2023/08/19 12:46:40;;;;;;;13.05;3.60;;;36.60;48.10;;;;;;7589730;19;20029;-75
2023/08/19 12:49:13;;;;;;;7.10;3.50;;;36.00;50.20;;;;;;7599247;19;20750;-76
2023/08/19 12:51:46;;;;;;;5.93;3.17;;;36.20;49.20;;;;;;7593836;19;20827;-75
2023/08/19 12:54:18;;;;;;;4.38;2.92;;;36.60;50.30;;;;;;7598940;19;20090;-74
2023/08/19 12:56:51;;;;;;;7.40;3.40;;;36.90;50.20;;;;;;7593608;19;20972;-76
2023/08/19 12:59:23;;;;;;;10.43;3.35;;;36.90;48.40;;;;;;7603516;19;20014;-74
2023/08/19 13:01:56;;;;;;;9.82;4.05;;;37.00;49.50;;;;;;7592044;19;20059;-75
2023/08/19 13:04:29;;;;;;;5.82;3.45;;;37.30;50.70;;;;;;7597434;19;20018;-75
2023/08/19 13:07:02;;;;;;;6.88;3.25;;;37.40;51.30;;;;;;7597989;19;20022;-76
2023/08/19 13:09:34;;;;;;;5.72;3.15;;;37.50;50.50;;;;;;7597802;19;20055;-73
2023/08/19 13:12:07;;;;;;;8.63;3.75;;;37.80;51.60;;;;;;7600686;19;20521;-75
2023/08/19 13:14:39;;;;;;;9.18;3.22;;;37.60;47.20;;;;;;7594924;19;20641;-75
2023/08/19 13:17:11;;;;;;;6.78;3.10;;;37.80;49.60;;;;;;7592080;19;20622;-76
2023/08/19 13:19:44;;;;;;;6.68;3.30;;;37.80;47.70;;;;;;7598091;19;20018;-75